Time;durP1;ratioP1;P1;durP2;ratioP2;P2;SDS_P1;SDS_P2;PMS_P1;PMS_P2;Temp;Humidity;BMP_temperature;BMP_pressure;BME280_temperature;BME280_humidity;BME280_pressure;Samples;Min_cycle;Max_cycle;Signal;HPM_P1;HPM_P2
2023/05/22 00:00:26;;;;;;;15.20;3.50;;;;;;;15.06;51.46;101210.98;107614;1254;99087;-59
2023/05/22 00:03:14;;;;;;;5.60;3.20;;;;;;;14.99;51.49;101203.03;107571;1254;115518;-59
2023/05/22 00:05:42;;;;;;;6.40;3.10;;;;;;;14.96;51.64;101207.14;107656;1254;108833;-60
2023/05/22 00:08:11;;;;;;;14.60;3.80;;;;;;;14.93;51.83;101202.42;107647;1256;108190;-59
2023/05/22 00:10:39;;;;;;;11.00;3.20;;;;;;;14.86;51.88;101211.68;107577;1254;99156;-60
2023/05/22 00:13:08;;;;;;;6.20;3.00;;;;;;;14.81;51.83;101209.66;107596;1256;99298;-59
2023/05/22 00:15:36;;;;;;;14.60;3.30;;;;;;;14.79;51.82;101212.99;107586;1251;112625;-58
2023/05/22 00:18:05;;;;;;;6.50;3.20;;;;;;;14.73;52.37;101212.79;107608;1254;109655;-60
2023/05/22 00:20:37;;;;;;;7.20;2.50;;;;;;;14.68;52.14;101208.23;107550;1251;107215;-59
2023/05/22 00:23:09;;;;;;;7.90;2.90;;;;;;;14.65;52.29;101209.80;107596;1251;99058;-58
2023/05/22 00:25:39;;;;;;;12.60;2.80;;;;;;;14.61;52.20;101204.74;107564;1251;99258;-57
2023/05/22 00:28:10;;;;;;;7.90;3.00;;;;;;;14.57;52.95;101206.05;107560;1251;112584;-60
2023/05/22 00:30:38;;;;;;;5.40;2.30;;;;;;;14.49;53.85;101204.50;107589;1251;109702;-59
2023/05/22 00:33:07;;;;;;;6.90;2.80;;;;;;;14.38;54.14;101206.61;107570;1251;107167;-58
2023/05/22 00:35:35;;;;;;;8.00;2.40;;;;;;;14.30;54.27;101203.84;107576;1251;99226;-58
2023/05/22 00:38:05;;;;;;;12.80;3.00;;;;;;;14.22;54.32;101198.98;107601;1254;99694;-59
2023/05/22 00:40:33;;;;;;;9.70;3.00;;;;;;;14.15;54.56;101207.64;107558;1251;113707;-60
2023/05/22 00:43:07;;;;;;;10.10;3.00;;;;;;;14.07;56.17;101205.10;107649;1251;108779;-59
2023/05/22 00:45:35;;;;;;;7.10;2.80;;;;;;;13.98;56.27;101204.03;107588;1254;107963;-59
2023/05/22 00:48:08;;;;;;;8.60;2.50;;;;;;;13.89;56.81;101208.14;107604;1251;99201;-61
2023/05/22 00:50:36;;;;;;;6.60;2.70;;;;;;;13.78;56.17;101207.74;107645;1251;99243;-60
2023/05/22 00:53:07;;;;;;;6.40;2.80;;;;;;;13.73;56.13;101205.83;107553;1251;113237;-60
2023/05/22 00:55:36;;;;;;;7.70;2.80;;;;;;;13.72;55.98;101204.88;107501;1251;110124;-59
2023/05/22 00:58:06;;;;;;;5.40;2.60;;;;;;;13.72;56.01;101205.02;107530;1251;107743;-58
2023/05/22 01:00:36;;;;;;;9.80;3.20;;;;;;;13.71;56.06;101207.08;107488;1251;99175;-60
2023/05/22 01:03:09;;;;;;;10.80;2.70;;;;;;;13.69;56.40;101205.16;107622;1251;99083;-61
2023/05/22 01:05:39;;;;;;;5.50;2.80;;;;;;;13.64;56.14;101206.22;107651;1251;111771;-59
2023/05/22 01:08:08;;;;;;;7.30;2.90;;;;;;;13.61;56.18;101213.81;107545;1254;108680;-60
2023/05/22 01:10:38;;;;;;;7.20;2.80;;;;;;;13.57;56.28;101216.56;107597;1254;108066;-58
2023/05/22 01:13:17;;;;;;;9.00;2.70;;;;;;;13.54;56.14;101213.96;107618;1251;99178;-58
2023/05/22 01:15:56;;;;;;;11.40;2.50;;;;;;;13.54;56.26;101220.42;107564;1251;99054;-59
2023/05/22 01:18:42;;;;;;;6.10;2.40;;;;;;;13.53;56.18;101213.87;107604;1251;111738;-59
2023/05/22 01:21:20;;;;;;;7.60;3.30;;;;;;;13.52;56.34;101214.65;107590;1251;109651;-61
2023/05/22 01:24:10;;;;;;;11.40;2.90;;;;;;;13.52;56.31;101213.40;107583;1251;106812;-59
2023/05/22 01:26:49;;;;;;;6.60;2.70;;;;;;;13.52;56.52;101209.65;107512;1251;99176;-58
2023/05/22 01:29:40;;;;;;;10.20;2.80;;;;;;;13.53;56.61;101210.98;107588;1251;99703;-59
2023/05/22 01:32:12;;;;;;;10.40;3.80;;;;;;;13.54;56.78;101212.55;107614;1251;113110;-60
2023/05/22 01:34:44;;;;;;;6.80;3.10;;;;;;;13.50;56.65;101206.44;107605;1254;108365;-58
2023/05/22 01:37:14;;;;;;;15.70;2.80;;;;;;;13.47;56.68;101210.84;107612;1251;108769;-60
2023/05/22 01:39:43;;;;;;;5.10;2.50;;;;;;;13.43;56.44;101211.14;107560;1251;99081;-59
2023/05/22 01:42:11;;;;;;;10.30;2.70;;;;;;;13.36;56.49;101209.99;107697;1251;99736;-59
2023/05/22 01:44:40;;;;;;;10.80;2.50;;;;;;;13.29;56.57;101210.67;107468;1251;113508;-59
2023/05/22 01:47:11;;;;;;;9.10;2.80;;;;;;;13.22;56.72;101207.46;107543;1251;109692;-59
2023/05/22 01:49:41;;;;;;;9.70;2.80;;;;;;;13.12;57.14;101211.81;107530;1251;108647;-59
2023/05/22 01:52:21;;;;;;;7.90;2.50;;;;;;;13.06;57.00;101217.41;107620;1251;99352;-60
2023/05/22 01:55:02;;;;;;;13.20;3.20;;;;;;;13.01;57.31;101213.55;107496;1251;100865;-60
2023/05/22 01:57:38;;;;;;;20.80;3.00;;;;;;;12.94;57.60;101214.55;107595;1257;112347;-58
2023/05/22 02:00:12;;;;;;;10.90;3.30;;;;;;;12.89;57.67;101213.47;107591;1251;109589;-59
2023/05/22 02:03:10;;;;;;;13.60;3.40;;;;;;;12.87;58.06;101210.56;107557;1251;107101;-59
2023/05/22 02:05:40;;;;;;;12.70;3.40;;;;;;;12.85;58.43;101211.77;107494;1251;99244;-59
2023/05/22 02:08:10;;;;;;;12.50;2.90;;;;;;;12.80;58.82;101213.84;107686;1251;99841;-58
2023/05/22 02:10:43;;;;;;;12.80;3.30;;;;;;;12.76;59.08;101212.41;107535;1251;113380;-59
2023/05/22 02:13:12;;;;;;;6.90;2.90;;;;;;;12.75;58.93;101209.50;107498;1251;109977;-58
2023/05/22 02:15:44;;;;;;;6.70;2.60;;;;;;;12.75;58.97;101213.58;107580;1251;107530;-58
2023/05/22 02:18:12;;;;;;;4.80;2.50;;;;;;;12.76;58.92;101210.11;107489;1254;99182;-59
2023/05/22 02:20:45;;;;;;;8.50;2.50;;;;;;;12.74;59.13;101211.88;107601;1254;99121;-58
2023/05/22 02:23:13;;;;;;;3.60;2.30;;;;;;;12.73;59.25;101214.53;107630;1256;113652;-60
2023/05/22 02:25:42;;;;;;;8.60;2.40;;;;;;;12.73;59.30;101210.76;107512;1251;109896;-58
2023/05/22 02:28:10;;;;;;;9.60;3.50;;;;;;;12.72;59.39;101217.48;107463;1257;108131;-58
2023/05/22 02:30:39;;;;;;;12.80;3.70;;;;;;;12.68;59.24;101222.27;107602;1257;99163;-58
2023/05/22 02:33:10;;;;;;;13.40;3.10;;;;;;;12.67;59.49;101226.86;107544;1251;99042;-58
2023/05/22 02:35:38;;;;;;;18.60;3.40;;;;;;;12.67;59.55;101230.27;107531;1254;113133;-59
2023/05/22 02:38:06;;;;;;;15.10;2.90;;;;;;;12.67;59.50;101223.48;107587;1250;111006;-60
2023/05/22 02:40:35;;;;;;;16.20;3.20;;;;;;;12.67;59.69;101227.56;107505;1251;107784;-59
2023/05/22 02:43:04;;;;;;;12.40;3.00;;;;;;;12.69;59.92;101227.80;107596;1251;99172;-59
2023/05/22 02:45:32;;;;;;;10.20;2.90;;;;;;;12.71;59.82;101229.45;107588;1251;98867;-59
2023/05/22 02:48:02;;;;;;;11.90;2.80;;;;;;;12.70;59.73;101228.80;107593;1251;113800;-59
2023/05/22 02:50:32;;;;;;;17.30;3.40;;;;;;;12.66;59.87;101225.01;107595;1250;109724;-60
2023/05/22 02:53:00;;;;;;;21.80;3.20;;;;;;;12.61;59.82;101229.63;107561;1251;110021;-57
2023/05/22 02:55:28;;;;;;;8.00;2.70;;;;;;;12.60;59.98;101226.61;107532;1254;99677;-63
2023/05/22 02:57:56;;;;;;;10.10;3.50;;;;;;;12.62;60.38;101228.45;107616;1253;99170;-62
2023/05/22 03:00:25;;;;;;;12.70;3.00;;;;;;;12.63;60.68;101233.23;107665;1251;111215;-60
2023/05/22 03:02:55;;;;;;;10.70;3.00;;;;;;;12.62;60.53;101237.61;107619;1250;110235;-60
2023/05/22 03:05:23;;;;;;;11.20;2.90;;;;;;;12.62;60.55;101234.38;107566;1251;107735;-61
2023/05/22 03:07:51;;;;;;;11.60;2.90;;;;;;;12.62;60.64;101233.27;107580;1251;99160;-58
2023/05/22 03:10:21;;;;;;;6.70;2.60;;;;;;;12.64;60.87;101227.52;107577;1254;99086;-59
2023/05/22 03:12:52;;;;;;;11.40;3.80;;;;;;;12.65;60.81;101227.98;107693;1254;113841;-59
2023/05/22 03:15:21;;;;;;;10.50;3.30;;;;;;;12.64;60.73;101222.27;107527;1254;108900;-59
2023/05/22 03:17:50;;;;;;;13.30;3.40;;;;;;;12.65;60.64;101226.23;107658;1251;108685;-59
2023/05/22 03:20:21;;;;;;;13.90;2.60;;;;;;;12.67;60.53;101222.98;107614;1251;99096;-60
2023/05/22 03:22:50;;;;;;;10.90;2.80;;;;;;;12.67;60.70;101223.14;107658;1251;99810;-58
2023/05/22 03:25:20;;;;;;;14.30;2.90;;;;;;;12.66;60.53;101224.16;107591;1251;112017;-59
2023/05/22 03:27:50;;;;;;;10.70;3.10;;;;;;;12.66;60.39;101227.70;107630;1251;110031;-58
2023/05/22 03:30:19;;;;;;;7.10;3.20;;;;;;;12.67;60.58;101226.55;107550;1251;108138;-60
2023/05/22 03:32:56;;;;;;;10.30;2.80;;;;;;;12.70;60.45;101232.03;107611;1251;99145;-59
2023/05/22 03:35:25;;;;;;;9.50;3.50;;;;;;;12.73;60.30;101235.60;107607;1254;99262;-59
2023/05/22 03:37:54;;;;;;;16.10;3.90;;;;;;;12.73;60.12;101231.48;107622;1253;112743;-59
2023/05/22 03:40:22;;;;;;;15.90;3.40;;;;;;;12.75;59.76;101232.69;107499;1251;109291;-60
2023/05/22 03:42:51;;;;;;;10.50;3.50;;;;;;;12.76;59.00;101228.98;107555;1254;107907;-59
2023/05/22 03:45:19;;;;;;;12.80;4.40;;;;;;;12.74;58.59;101229.56;107545;1253;99173;-59
2023/05/22 03:47:48;;;;;;;14.20;4.90;;;;;;;12.74;58.41;101231.02;107701;1253;99810;-60
2023/05/22 03:50:20;;;;;;;11.50;4.20;;;;;;;12.76;58.40;101228.86;107616;1251;113028;-64
2023/05/22 03:52:49;;;;;;;14.40;4.30;;;;;;;12.66;58.24;101226.63;107613;1251;110151;-60
2023/05/22 03:55:17;;;;;;;11.80;4.10;;;;;;;12.57;58.29;101222.96;107612;1254;107840;-60
2023/05/22 03:57:46;;;;;;;12.70;4.20;;;;;;;12.55;58.42;101220.09;107648;1253;99064;-62
2023/05/22 04:00:18;;;;;;;20.80;4.80;;;;;;;12.56;58.50;101219.98;107454;1254;99761;-59
2023/05/22 04:02:46;;;;;;;15.90;5.10;;;;;;;12.57;58.43;101219.16;107628;1254;113273;-61
2023/05/22 04:05:15;;;;;;;17.50;6.20;;;;;;;12.59;58.24;101219.23;107487;1254;108519;-60
2023/05/22 04:07:44;;;;;;;18.80;10.00;;;;;;;12.61;58.30;101220.27;107598;1256;108271;-59
2023/05/22 04:10:12;;;;;;;19.80;6.30;;;;;;;12.65;58.14;101225.09;107604;1254;99295;-58
2023/05/22 04:12:40;;;;;;;13.70;5.00;;;;;;;12.71;57.94;101228.03;107632;1251;99198;-61
2023/05/22 04:15:09;;;;;;;10.30;4.40;;;;;;;12.77;57.97;101223.33;107515;1254;113484;-61
2023/05/22 04:17:40;;;;;;;12.90;4.30;;;;;;;12.85;57.91;101224.93;107556;1254;109278;-58
2023/05/22 04:20:10;;;;;;;15.70;4.50;;;;;;;12.94;57.60;101227.69;107631;1251;108797;-58
2023/05/22 04:22:39;;;;;;;10.00;4.00;;;;;;;12.98;57.32;101225.38;107603;1251;99176;-58
2023/05/22 04:25:09;;;;;;;14.80;4.10;;;;;;;12.99;57.26;101221.64;107542;1251;99064;-59
2023/05/22 04:27:38;;;;;;;8.50;3.90;;;;;;;12.97;57.22;101225.14;107601;1250;112662;-61
2023/05/22 04:30:09;;;;;;;13.80;3.90;;;;;;;12.95;57.14;101229.39;107621;1250;109550;-59
2023/05/22 04:32:39;;;;;;;13.30;4.60;;;;;;;12.95;57.11;101227.68;107498;1251;107688;-59
2023/05/22 04:35:11;;;;;;;23.70;4.00;;;;;;;12.96;56.94;101234.39;107523;1251;99189;-59
2023/05/22 04:37:44;;;;;;;8.00;3.70;;;;;;;12.95;56.95;101240.40;107653;1251;99233;-58
2023/05/22 04:40:14;;;;;;;23.70;4.20;;;;;;;12.98;56.97;101237.81;107517;1250;113496;-58
2023/05/22 04:42:43;;;;;;;21.20;4.90;;;;;;;13.01;57.17;101235.34;107626;1251;109733;-59
2023/05/22 04:45:12;;;;;;;10.90;3.90;;;;;;;13.01;57.18;101236.96;107496;1251;109158;-57
2023/05/22 04:47:41;;;;;;;17.40;4.70;;;;;;;13.02;57.29;101236.04;107627;1251;99330;-58
2023/05/22 04:50:10;;;;;;;17.20;4.60;;;;;;;13.04;57.32;101238.93;107589;1253;99076;-57
2023/05/22 04:52:39;;;;;;;14.90;4.70;;;;;;;13.03;57.68;101239.48;107594;1254;113494;-59
2023/05/22 04:55:10;;;;;;;47.50;6.50;;;;;;;13.02;57.71;101244.49;107616;1251;108204;-58
2023/05/22 04:57:40;;;;;;;22.80;5.10;;;;;;;13.07;57.94;101250.11;107610;1251;107702;-59
2023/05/22 05:00:09;;;;;;;14.80;4.80;;;;;;;13.11;58.07;101249.91;107442;1252;99165;-61
2023/05/22 05:02:39;;;;;;;19.90;4.30;;;;;;;13.17;58.20;101251.16;107489;1253;99230;-64
2023/05/22 05:05:10;;;;;;;23.10;4.80;;;;;;;13.24;58.11;101256.86;107480;1257;112749;-62
2023/05/22 05:07:39;;;;;;;17.00;4.20;;;;;;;13.31;58.10;101259.82;107623;1251;110076;-59
2023/05/22 05:10:09;;;;;;;11.60;3.50;;;;;;;13.41;58.08;101262.14;107636;1251;107687;-61
2023/05/22 05:12:40;;;;;;;18.30;4.60;;;;;;;13.46;57.74;101256.45;107615;1251;99188;-62
2023/05/22 05:15:09;;;;;;;18.30;4.40;;;;;;;13.52;57.76;101255.96;107488;1251;99109;-59
2023/05/22 05:17:37;;;;;;;11.10;4.60;;;;;;;13.54;57.53;101253.23;107601;1251;112778;-60
2023/05/22 05:20:09;;;;;;;24.30;4.10;;;;;;;13.58;57.42;101253.52;107495;1251;109949;-60
2023/05/22 05:22:39;;;;;;;13.20;4.20;;;;;;;13.67;57.69;101254.86;107655;1251;107791;-60
2023/05/22 05:25:08;;;;;;;12.90;4.40;;;;;;;13.75;57.28;101253.91;107521;1254;99621;-59
2023/05/22 05:27:41;;;;;;;12.20;4.10;;;;;;;13.82;56.79;101254.02;107659;1251;99089;-61
2023/05/22 05:30:14;;;;;;;6.00;3.30;;;;;;;13.91;56.60;101249.77;107504;1251;113671;-60
2023/05/22 05:33:09;;;;;;;12.40;3.70;;;;;;;14.00;56.38;101247.10;107507;1251;110309;-62
2023/05/22 05:35:52;;;;;;;11.10;3.60;;;;;;;14.09;56.30;101247.73;107601;1251;108503;-59
2023/05/22 05:38:24;;;;;;;10.80;4.10;;;;;;;14.19;56.34;101241.89;107477;1251;99195;-60
2023/05/22 05:40:54;;;;;;;11.90;4.00;;;;;;;14.29;55.94;101243.95;107544;1251;99052;-59
2023/05/22 05:43:24;;;;;;;16.90;3.70;;;;;;;14.38;55.90;101245.24;107637;1251;113589;-58
2023/05/22 05:45:56;;;;;;;16.80;4.20;;;;;;;14.47;55.75;101242.92;107523;1250;109202;-58
2023/05/22 05:48:24;;;;;;;12.70;3.70;;;;;;;14.54;54.85;101238.54;107597;1250;107045;-58
2023/05/22 05:50:54;;;;;;;10.40;4.10;;;;;;;14.56;54.75;101239.55;107510;1251;99041;-60
2023/05/22 05:53:22;;;;;;;10.50;3.40;;;;;;;14.60;54.47;101243.35;107570;1251;99165;-59
2023/05/22 05:55:56;;;;;;;12.60;3.70;;;;;;;14.65;54.49;101244.12;107497;1251;111720;-60
2023/05/22 05:58:25;;;;;;;18.40;3.70;;;;;;;14.72;54.54;101247.55;107552;1254;109048;-60
2023/05/22 06:01:13;;;;;;;9.20;3.60;;;;;;;14.79;54.00;101249.04;107558;1251;108614;-59
2023/05/22 06:03:42;;;;;;;6.50;3.20;;;;;;;14.83;53.69;101243.27;107518;1251;99274;-58
2023/05/22 06:06:14;;;;;;;18.70;3.50;;;;;;;14.88;53.60;101238.10;107628;1254;99204;-60
2023/05/22 06:09:21;;;;;;;13.70;4.10;;;;;;;15.00;54.11;101235.45;107664;1253;112657;-60
2023/05/22 06:12:28;;;;;;;11.20;3.70;;;;;;;15.15;54.43;101234.67;106894;1259;109161;-60
2023/05/22 06:14:56;;;;;;;9.00;2.90;;;;;;;15.25;54.33;101229.34;106795;1263;107424;-59
2023/05/22 06:17:26;;;;;;;33.50;3.90;;;;;;;15.34;54.02;101232.52;107295;1251;99164;-58
2023/05/22 06:19:54;;;;;;;11.40;4.30;;;;;;;15.43;54.03;101233.50;107601;1253;99100;-59
2023/05/22 06:22:25;;;;;;;10.50;3.30;;;;;;;15.51;53.60;101232.65;107462;1254;112598;-59
2023/05/22 06:24:54;;;;;;;16.00;3.10;;;;;;;15.58;53.65;101231.80;107529;1251;108482;-58
2023/05/22 06:27:26;;;;;;;11.80;3.70;;;;;;;15.67;53.65;101233.79;107648;1251;109489;-60
2023/05/22 06:29:55;;;;;;;11.30;3.10;;;;;;;15.74;53.48;101235.39;107501;1254;99292;-62
2023/05/22 06:32:26;;;;;;;6.40;2.60;;;;;;;15.81;53.20;101235.17;107658;1252;99314;-59
2023/05/22 06:34:54;;;;;;;11.80;2.70;;;;;;;15.88;53.04;101235.41;107597;1252;112473;-59
2023/05/22 06:37:22;;;;;;;18.00;3.20;;;;;;;15.95;52.77;101230.74;107639;1254;108525;-59
2023/05/22 06:39:52;;;;;;;9.30;3.20;;;;;;;16.03;52.28;101233.92;107626;1253;107503;-57
2023/05/22 06:42:42;;;;;;;13.30;3.30;;;;;;;16.14;52.13;101225.12;107626;1253;99195;-59
2023/05/22 06:45:31;;;;;;;14.30;3.10;;;;;;;16.22;52.23;101225.13;107663;1251;99165;-59
2023/05/22 06:48:18;;;;;;;15.90;3.30;;;;;;;16.31;51.80;101226.21;107618;1251;113108;-59
2023/05/22 06:51:01;;;;;;;13.50;3.80;;;;;;;16.40;51.61;101229.20;107571;1250;109353;-59
2023/05/22 06:53:30;;;;;;;13.80;2.90;;;;;;;16.47;51.47;101227.08;107619;1251;108231;-59
2023/05/22 06:55:59;;;;;;;7.70;3.20;;;;;;;16.52;51.28;101225.08;107614;1254;99173;-61
2023/05/22 06:58:40;;;;;;;24.40;3.80;;;;;;;16.58;51.23;101230.77;107557;1254;99752;-60
2023/05/22 07:01:09;;;;;;;11.20;3.30;;;;;;;16.66;51.06;101233.61;107627;1251;113502;-59
2023/05/22 07:03:42;;;;;;;4.20;2.80;;;;;;;16.74;50.52;101228.00;107576;1251;109549;-58
2023/05/22 07:06:38;;;;;;;7.30;3.40;;;;;;;16.85;50.35;101228.05;107392;1251;108846;-60
2023/05/22 07:09:07;;;;;;;7.40;3.70;;;;;;;16.94;50.20;101230.64;107616;1254;99285;-60
2023/05/22 07:11:36;;;;;;;21.70;3.50;;;;;;;17.00;50.20;101230.91;107608;1253;99797;-59
2023/05/22 07:14:04;;;;;;;12.90;3.30;;;;;;;17.08;49.84;101228.27;107641;1251;112150;-60
2023/05/22 07:16:32;;;;;;;11.00;3.50;;;;;;;17.17;49.28;101225.59;107559;1253;109205;-60
2023/05/22 07:19:02;;;;;;;15.70;3.50;;;;;;;17.27;49.03;101225.63;107470;1253;106132;-60
2023/05/22 07:21:31;;;;;;;10.20;2.80;;;;;;;17.34;48.74;101226.11;107521;1254;99216;-59
2023/05/22 07:24:07;;;;;;;12.10;4.30;;;;;;;17.39;48.53;101223.17;107644;1251;99172;-59
2023/05/22 07:26:45;;;;;;;9.90;4.10;;;;;;;17.49;48.59;101220.22;107600;1256;113685;-64
2023/05/22 07:29:16;;;;;;;18.10;3.60;;;;;;;17.56;48.96;101225.31;107613;1251;109894;-62
2023/05/22 07:31:47;;;;;;;12.00;3.50;;;;;;;17.62;48.84;101224.80;107620;1251;107223;-59
2023/05/22 07:34:16;;;;;;;14.20;4.70;;;;;;;17.66;47.94;101218.39;107639;1251;99165;-59
2023/05/22 07:36:45;;;;;;;9.80;3.90;;;;;;;17.77;48.21;101221.83;107643;1251;99720;-60
2023/05/22 07:39:16;;;;;;;13.40;3.40;;;;;;;17.87;48.33;101226.23;107481;1254;111444;-60
2023/05/22 07:41:50;;;;;;;24.70;4.00;;;;;;;17.94;48.03;101214.21;107585;1250;110874;-59
2023/05/22 07:44:22;;;;;;;8.00;4.00;;;;;;;18.05;48.44;101219.52;107519;1251;107985;-62
2023/05/22 07:46:52;;;;;;;10.40;3.20;;;;;;;18.13;48.30;101216.89;107514;1251;99148;-62
2023/05/22 07:49:25;;;;;;;7.90;2.80;;;;;;;18.22;47.84;101209.65;107609;1250;99044;-60
2023/05/22 07:51:53;;;;;;;15.60;3.10;;;;;;;18.30;47.90;101209.23;107594;1254;111647;-58
2023/05/22 07:54:23;;;;;;;14.40;2.90;;;;;;;18.39;47.83;101207.50;107610;1254;109915;-59
2023/05/22 07:56:54;;;;;;;14.50;3.60;;;;;;;18.45;47.31;101197.91;107514;1252;108333;-63
2023/05/22 07:59:24;;;;;;;11.30;3.10;;;;;;;18.54;47.51;101199.55;107597;1251;99073;-62
2023/05/22 08:01:55;;;;;;;18.70;3.50;;;;;;;18.62;47.59;101200.48;107013;1252;788493;-59
2023/05/22 08:04:26;;;;;;;11.00;3.20;;;;;;;18.68;47.26;101203.64;107598;1254;113452;-59
2023/05/22 08:06:56;;;;;;;16.10;3.10;;;;;;;18.73;46.93;101202.23;107646;1254;108304;-62
2023/05/22 08:09:24;;;;;;;13.60;3.40;;;;;;;18.83;47.09;101203.45;107614;1251;107324;-60
2023/05/22 08:11:52;;;;;;;5.00;2.80;;;;;;;18.95;47.01;101195.14;107594;1251;99233;-59
2023/05/22 08:14:21;;;;;;;6.40;3.10;;;;;;;19.08;46.96;101191.34;107728;1250;99528;-58
2023/05/22 08:16:49;;;;;;;8.30;3.40;;;;;;;19.16;46.79;101186.98;107660;1251;111952;-61
2023/05/22 08:19:19;;;;;;;12.30;2.80;;;;;;;19.25;46.54;101186.73;107656;1251;108899;-59
2023/05/22 08:21:48;;;;;;;12.00;3.40;;;;;;;19.37;46.20;101190.80;107600;1251;107781;-61
2023/05/22 08:24:17;;;;;;;8.10;3.40;;;;;;;19.47;46.06;101191.41;107620;1251;99147;-59
2023/05/22 08:26:45;;;;;;;13.90;3.60;;;;;;;19.57;45.59;101192.29;107640;1253;99169;-60
2023/05/22 08:29:14;;;;;;;11.60;3.10;;;;;;;19.60;44.60;101189.00;107612;1254;112661;-59
2023/05/22 08:31:42;;;;;;;11.80;3.30;;;;;;;19.70;45.06;101192.52;107616;1251;109885;-59
2023/05/22 08:34:11;;;;;;;8.70;2.30;;;;;;;19.83;45.00;101186.73;107605;1251;107301;-59
2023/05/22 08:36:39;;;;;;;14.00;3.30;;;;;;;19.96;44.76;101184.60;107549;1251;99194;-59
2023/05/22 08:39:08;;;;;;;10.80;3.60;;;;;;;20.08;44.67;101177.95;107645;1254;99057;-61
2023/05/22 08:41:37;;;;;;;15.60;3.70;;;;;;;20.18;44.23;101174.49;107602;1251;113468;-60
2023/05/22 08:44:05;;;;;;;14.00;3.30;;;;;;;20.31;44.07;101170.55;107614;1251;110668;-58
2023/05/22 08:46:36;;;;;;;11.10;4.10;;;;;;;20.48;44.29;101169.15;107596;1251;107466;-59
2023/05/22 08:49:07;;;;;;;5.30;2.60;;;;;;;20.65;43.86;101164.44;107614;1251;99178;-60
2023/05/22 08:51:43;;;;;;;9.80;2.40;;;;;;;20.84;43.51;101159.80;107575;1254;99274;-60
2023/05/22 08:54:17;;;;;;;16.50;3.70;;;;;;;21.02;42.65;101162.09;107594;1253;113372;-59
2023/05/22 08:56:48;;;;;;;10.70;2.50;;;;;;;21.17;42.34;101154.36;107657;1251;109880;-60
2023/05/22 08:59:24;;;;;;;6.20;2.60;;;;;;;21.43;42.44;101153.55;107659;1251;108278;-60
2023/05/22 09:01:53;;;;;;;16.60;2.50;;;;;;;21.71;41.75;101151.50;107538;1252;99188;-63
2023/05/22 09:04:24;;;;;;;7.00;2.30;;;;;;;21.98;40.37;101148.27;107680;1254;99719;-60
2023/05/22 09:06:53;;;;;;;12.30;3.00;;;;;;;22.13;39.60;101142.42;107643;1251;113775;-60
2023/05/22 09:09:22;;;;;;;13.10;2.80;;;;;;;22.36;39.71;101142.73;107595;1251;109406;-59
2023/05/22 09:11:54;;;;;;;21.70;3.40;;;;;;;22.62;39.66;101136.73;107546;1254;109815;-61
2023/05/22 09:14:23;;;;;;;7.70;2.60;;;;;;;22.96;37.36;101137.84;107574;1254;99039;-59
2023/05/22 09:16:53;;;;;;;10.20;2.50;;;;;;;23.29;35.77;101134.84;107627;1251;99164;-60
2023/05/22 09:19:22;;;;;;;9.90;3.00;;;;;;;23.55;34.94;101134.14;107645;1251;111609;-61
2023/05/22 09:21:51;;;;;;;14.50;3.50;;;;;;;23.81;35.18;101130.77;107619;1251;109134;-60
2023/05/22 09:24:20;;;;;;;8.00;3.80;;;;;;;24.15;34.50;101122.53;107610;1251;108294;-60
2023/05/22 09:26:51;;;;;;;12.60;2.60;;;;;;;24.53;35.30;101119.89;107586;1251;99050;-58
2023/05/22 09:29:21;;;;;;;10.60;2.30;;;;;;;24.97;33.94;101122.44;107634;1251;99091;-59
2023/05/22 09:31:49;;;;;;;6.40;2.40;;;;;;;25.30;31.61;101118.95;107600;1251;112426;-59
2023/05/22 09:34:18;;;;;;;11.30;3.10;;;;;;;25.51;30.96;101117.38;107585;1253;110281;-60
2023/05/22 09:36:48;;;;;;;13.80;3.20;;;;;;;25.76;31.07;101121.77;107592;1252;108651;-61
2023/05/22 09:39:17;;;;;;;15.60;2.60;;;;;;;26.07;30.77;101119.38;107591;1254;99717;-59
2023/05/22 09:41:45;;;;;;;7.90;2.70;;;;;;;26.34;29.36;101121.25;107594;1253;99676;-59
2023/05/22 09:44:17;;;;;;;16.60;3.50;;;;;;;26.54;30.36;101122.08;107616;1254;113591;-63
2023/05/22 09:46:53;;;;;;;15.20;3.00;;;;;;;26.93;29.83;101119.86;107587;1253;110015;-61
2023/05/22 09:49:22;;;;;;;6.60;2.30;;;;;;;27.23;29.86;101120.04;107590;1254;107728;-59
2023/05/22 09:51:53;;;;;;;8.60;2.50;;;;;;;27.64;29.15;101111.05;107575;1253;99178;-60
2023/05/22 09:54:25;;;;;;;7.10;2.50;;;;;;;28.01;28.34;101102.84;107645;1253;99718;-64
2023/05/22 09:56:57;;;;;;;9.30;3.30;;;;;;;28.26;28.14;101099.42;107584;1253;113776;-60
2023/05/22 09:59:29;;;;;;;6.70;2.40;;;;;;;28.58;27.19;101093.47;107614;1252;108072;-58
2023/05/22 10:01:58;;;;;;;7.90;2.10;;;;;;;28.73;27.52;101094.03;107635;1254;109305;-61
2023/05/22 10:04:31;;;;;;;6.00;1.90;;;;;;;28.93;27.48;101090.52;107615;1254;99164;-59
2023/05/22 10:07:02;;;;;;;8.60;2.30;;;;;;;29.25;27.73;101087.69;107603;1253;99711;-61
2023/05/22 10:09:34;;;;;;;9.00;2.60;;;;;;;28.97;27.06;101088.23;107618;1254;112633;-61
2023/05/22 10:12:06;;;;;;;11.40;2.00;;;;;;;28.44;27.89;101091.83;107637;1254;110046;-61
2023/05/22 10:14:35;;;;;;;9.00;2.50;;;;;;;27.86;28.37;101089.92;107581;1253;108794;-59
2023/05/22 10:17:05;;;;;;;10.30;2.00;;;;;;;27.35;29.64;101090.99;107633;1252;99159;-60
2023/05/22 10:19:35;;;;;;;22.00;2.50;;;;;;;27.53;29.25;101087.75;107663;1254;99913;-60
2023/05/22 10:22:12;;;;;;;11.90;2.80;;;;;;;28.37;27.80;101081.75;107607;1253;113119;-60
2023/05/22 10:24:41;;;;;;;8.00;2.40;;;;;;;28.87;28.18;101084.58;107603;1253;108075;-61
2023/05/22 10:27:10;;;;;;;9.00;2.60;;;;;;;29.77;27.50;101085.27;107593;1255;110223;-61
2023/05/22 10:29:59;;;;;;;28.30;2.60;;;;;;;30.57;27.32;101080.96;107588;1252;99170;-60
2023/05/22 10:32:50;;;;;;;14.30;2.80;;;;;;;31.60;26.95;101075.93;107601;1254;99594;-60
2023/05/22 10:35:43;;;;;;;5.80;2.20;;;;;;;32.55;25.04;101071.48;107614;1254;113771;-61
2023/05/22 10:38:30;;;;;;;;;;;;;;;33.09;24.79;101073.48;107665;1253;110011;-60
2023/05/22 10:41:02;;;;;;;9.90;2.40;;;;;;;32.78;25.29;101073.44;107599;1251;108118;-61
2023/05/22 10:43:31;;;;;;;4.30;2.10;;;;;;;32.18;25.75;101073.95;107610;1252;99160;-61
2023/05/22 10:46:05;;;;;;;10.70;2.00;;;;;;;32.56;25.01;101068.13;107450;1254;99074;-61
2023/05/22 10:48:44;;;;;;;9.10;1.40;;;;;;;33.11;23.92;101058.03;107686;1252;113070;-60
2023/05/22 10:51:16;;;;;;;12.70;2.10;;;;;;;33.62;22.88;101057.86;107601;1254;110027;-61
2023/05/22 10:53:52;;;;;;;6.80;2.10;;;;;;;33.99;23.60;101049.62;107557;1254;108177;-61
2023/05/22 10:56:21;;;;;;;11.90;1.90;;;;;;;33.99;22.78;101052.36;107555;1254;99154;-60
2023/05/22 10:58:58;;;;;;;12.70;2.30;;;;;;;34.03;22.27;101050.99;107597;1254;99191;-59
2023/05/22 11:01:26;;;;;;;5.10;1.80;;;;;;;34.15;21.88;101051.75;107653;1254;113204;-59
2023/05/22 11:04:03;;;;;;;6.20;1.50;;;;;;;33.93;21.37;101048.40;107626;1253;109652;-62
2023/05/22 11:06:41;;;;;;;9.30;2.50;;;;;;;32.99;22.36;101047.86;107559;1254;109052;-61
2023/05/22 11:09:30;;;;;;;4.70;1.80;;;;;;;33.09;21.92;101040.15;107603;1254;99173;-60
2023/05/22 11:12:23;;;;;;;10.70;2.50;;;;;;;33.30;21.77;101033.58;107643;1252;99162;-64
2023/05/22 11:14:52;;;;;;;;;;;;;;;33.29;21.73;101037.04;107657;1252;113063;-63
2023/05/22 11:17:26;;;;;;;8.00;1.80;;;;;;;32.82;22.59;101037.96;107661;1251;109546;-60
2023/05/22 11:20:03;;;;;;;4.50;1.70;;;;;;;33.31;22.47;101029.74;107597;1251;108626;-61
2023/05/22 11:22:39;;;;;;;9.50;2.00;;;;;;;34.23;22.06;101028.32;107618;1251;99163;-60
2023/05/22 11:25:10;;;;;;;13.20;2.60;;;;;;;35.16;20.73;101023.38;107612;1251;99163;-62
2023/05/22 11:27:40;;;;;;;4.70;1.30;;;;;;;35.71;19.82;101016.92;107563;1254;113178;-61